Time;durP1;ratioP1;P1;durP2;ratioP2;P2;SDS_P1;SDS_P2;PMS_P1;PMS_P2;Temp;Humidity;BMP_temperature;BMP_pressure;BME280_temperature;BME280_humidity;BME280_pressure;Samples;Min_cycle;Max_cycle;Signal;HPM_P1;HPM_P2
2023/07/29 00:01:02;;;;;;;;;;;;;;;16.06;100.00;99532.03;5074929;28;810;-57
2023/07/29 00:03:29;;;;;;;;;;;;;;;16.12;100.00;99526.69;5074728;28;875;-57
2023/07/29 00:05:56;;;;;;;;;;;;;;;16.19;100.00;99520.88;5074723;28;1910;-57
2023/07/29 00:08:23;;;;;;;;;;;;;;;16.28;100.00;99522.97;5074764;28;830;-57
2023/07/29 00:10:50;;;;;;;;;;;;;;;16.40;100.00;99522.19;5074795;28;854;-57
2023/07/29 00:13:16;;;;;;;;;;;;;;;16.42;100.00;99524.53;5074597;28;927;-57
2023/07/29 00:15:43;;;;;;;;;;;;;;;16.35;100.00;99517.19;5074604;28;826;-57
2023/07/29 00:18:10;;;;;;;;;;;;;;;16.22;100.00;99508.06;5074617;28;856;-57
2023/07/29 00:20:37;;;;;;;;;;;;;;;16.17;100.00;99514.94;5074401;28;939;-57
2023/07/29 00:23:03;;;;;;;;;;;;;;;16.03;100.00;99512.66;5074599;28;881;-57
2023/07/29 00:25:30;;;;;;;;;;;;;;;15.87;100.00;99505.16;5074358;28;1890;-57
2023/07/29 00:27:58;;;;;;;;;;;;;;;15.76;100.00;99510.28;5074415;28;847;-57
2023/07/29 00:30:25;;;;;;;;;;;;;;;15.69;100.00;99500.13;5074312;28;822;-57
2023/07/29 00:32:52;;;;;;;;;;;;;;;15.63;100.00;99505.47;5074581;28;838;-57
2023/07/29 00:35:19;;;;;;;;;;;;;;;15.54;100.00;99504.56;5074219;28;806;-57
2023/07/29 00:37:46;;;;;;;;;;;;;;;15.51;100.00;99497.84;5074209;28;897;-57
2023/07/29 00:40:19;;;;;;;;;;;;;;;15.57;100.00;99495.31;5074299;28;826;-57
2023/07/29 00:42:46;;;;;;;;;;;;;;;15.64;100.00;99487.53;5074248;28;798;-57
2023/07/29 00:45:13;;;;;;;;;;;;;;;15.68;100.00;99485.41;5074289;28;1885;-57
2023/07/29 00:47:41;;;;;;;;;;;;;;;15.59;100.00;99485.28;5074037;28;1357;-57
2023/07/29 00:50:09;;;;;;;;;;;;;;;15.41;100.00;99485.84;5056258;28;1341;-57
2023/07/29 00:52:36;;;;;;;;;;;;;;;15.26;100.00;99479.13;5073934;28;844;-57
2023/07/29 00:55:04;;;;;;;;;;;;;;;15.03;100.00;99455.91;5074052;28;798;-57
2023/07/29 00:57:31;;;;;;;;;;;;;;;15.17;100.00;99488.13;5073814;28;881;-57
2023/07/29 00:59:58;;;;;;;;;;;;;;;15.10;100.00;99479.97;5073903;28;821;-57
2023/07/29 01:02:26;;;;;;;;;;;;;;;15.09;100.00;99481.19;5073636;28;862;-57
2023/07/29 01:05:01;;;;;;;;;;;;;;;15.02;100.00;99484.97;5073622;28;1981;-57
2023/07/29 01:07:33;;;;;;;;;;;;;;;14.97;100.00;99484.72;5073705;28;822;-57
2023/07/29 01:10:02;;;;;;;;;;;;;;;14.88;100.00;99477.78;5073555;28;823;-57
2023/07/29 01:12:29;;;;;;;;;;;;;;;14.84;100.00;99479.13;5073640;28;897;-57
2023/07/29 01:15:14;;;;;;;;;;;;;;;14.78;100.00;99476.06;5073487;28;849;-57
2023/07/29 01:17:43;;;;;;;;;;;;;;;14.72;100.00;99474.28;5073425;28;879;-57
2023/07/29 01:20:14;;;;;;;;;;;;;;;14.68;100.00;99469.59;5073372;28;818;-57
2023/07/29 01:22:41;;;;;;;;;;;;;;;14.69;100.00;99475.94;5073540;28;802;-57
2023/07/29 01:25:08;;;;;;;;;;;;;;;14.72;100.00;99475.03;5073285;28;1948;-57
2023/07/29 01:27:35;;;;;;;;;;;;;;;14.96;100.00;99472.81;5073453;28;787;-58
2023/07/29 01:30:05;;;;;;;;;;;;;;;15.30;100.00;99469.44;5073380;28;807;-57
2023/07/29 01:32:44;;;;;;;;;;;;;;;15.43;100.00;99472.25;5073188;28;810;-57
2023/07/29 01:35:28;;;;;;;;;;;;;;;15.43;100.00;99469.47;5073170;28;819;-57
2023/07/29 01:38:10;;;;;;;;;;;;;;;15.28;100.00;99457.97;5073040;28;853;-57
2023/07/29 01:40:37;;;;;;;;;;;;;;;15.12;100.00;99466.38;5073051;28;885;-57
2023/07/29 01:43:04;;;;;;;;;;;;;;;14.98;100.00;99461.22;5072904;28;814;-57
2023/07/29 01:45:35;;;;;;;;;;;;;;;14.87;100.00;99465.13;5054795;28;2074;-57
2023/07/29 01:48:01;;;;;;;;;;;;;;;14.84;100.00;99471.53;5072725;28;1455;-57
2023/07/29 01:50:28;;;;;;;;;;;;;;;14.84;100.00;99465.97;5072761;28;842;-57
2023/07/29 01:52:55;;;;;;;;;;;;;;;14.81;100.00;99471.66;5072916;28;814;-57
2023/07/29 01:55:22;;;;;;;;;;;;;;;14.80;100.00;99470.84;5071903;28;861;-57
2023/07/29 01:57:51;;;;;;;;;;;;;;;14.86;100.00;99462.75;5072651;28;862;-57
2023/07/29 02:00:18;;;;;;;;;;;;;;;14.83;100.00;99461.66;5072481;28;906;-57
2023/07/29 02:02:45;;;;;;;;;;;;;;;14.87;100.00;99453.97;5072505;28;857;-57
2023/07/29 02:05:11;;;;;;;;;;;;;;;14.93;100.00;99456.22;5072506;28;1910;-57
2023/07/29 02:07:37;;;;;;;;;;;;;;;14.95;100.00;99462.13;5072441;28;976;-57
2023/07/29 02:10:04;;;;;;;;;;;;;;;14.89;100.00;99467.44;5072777;28;834;-57
2023/07/29 02:12:31;;;;;;;;;;;;;;;14.78;100.00;99456.59;5072361;28;810;-57
2023/07/29 02:14:58;;;;;;;;;;;;;;;14.67;100.00;99462.47;5072403;28;944;-58
2023/07/29 02:17:26;;;;;;;;;;;;;;;14.58;100.00;99455.97;5072311;28;818;-57
2023/07/29 02:19:53;;;;;;;;;;;;;;;14.52;100.00;99458.47;5072243;28;870;-57
2023/07/29 02:22:20;;;;;;;;;;;;;;;14.55;100.00;99466.00;5054409;28;1321;-57
2023/07/29 02:24:47;;;;;;;;;;;;;;;14.59;100.00;99461.09;5054183;28;1947;-57
2023/07/29 02:27:14;;;;;;;;;;;;;;;14.64;100.00;99457.00;5072192;28;857;-57
2023/07/29 02:29:41;;;;;;;;;;;;;;;14.66;100.00;99460.13;5071975;28;1002;-57
2023/07/29 02:32:08;;;;;;;;;;;;;;;14.69;100.00;99464.81;5072109;28;1137;-57
2023/07/29 02:34:35;;;;;;;;;;;;;;;14.69;100.00;99464.81;5072041;28;856;-57
2023/07/29 02:37:02;;;;;;;;;;;;;;;14.66;100.00;99468.47;5072115;28;825;-57
2023/07/29 02:39:29;;;;;;;;;;;;;;;14.63;100.00;99467.34;5072069;28;822;-57
2023/07/29 02:41:58;;;;;;;;;;;;;;;14.63;100.00;99472.91;5072037;28;826;-57
2023/07/29 02:44:25;;;;;;;;;;;;;;;14.64;100.00;99473.69;5071789;28;1933;-57
2023/07/29 02:46:54;;;;;;;;;;;;;;;14.67;100.00;99472.81;5072051;28;1157;-57
2023/07/29 02:49:21;;;;;;;;;;;;;;;14.69;100.00;99487.84;5071912;28;812;-57
2023/07/29 02:51:48;;;;;;;;;;;;;;;14.68;100.00;99480.72;5071815;28;848;-57
2023/07/29 02:54:15;;;;;;;;;;;;;;;14.68;100.00;99485.50;5071901;28;954;-57
2023/07/29 02:56:41;;;;;;;;;;;;;;;14.68;100.00;99483.50;5071794;28;877;-57
2023/07/29 02:59:08;;;;;;;;;;;;;;;14.70;100.00;99491.41;5071743;28;810;-57
2023/07/29 03:01:34;;;;;;;;;;;;;;;14.70;100.00;99489.41;5053717;28;1203;-58
2023/07/29 03:04:01;;;;;;;;;;;;;;;14.72;100.00;99477.81;5071701;28;1921;-57
2023/07/29 03:06:27;;;;;;;;;;;;;;;14.74;100.00;99485.75;5073136;28;819;-57
2023/07/29 03:08:54;;;;;;;;;;;;;;;14.73;100.00;99484.97;5078442;28;822;-57
2023/07/29 03:11:21;;;;;;;;;;;;;;;14.71;100.00;99479.06;5060262;28;850;-57
2023/07/29 03:13:47;;;;;;;;;;;;;;;14.70;100.00;99475.50;5078400;28;849;-57
2023/07/29 03:16:15;;;;;;;;;;;;;;;14.69;100.00;99484.28;5078314;28;881;-57
2023/07/29 03:18:42;;;;;;;;;;;;;;;14.69;100.00;99487.84;5078635;28;818;-57
2023/07/29 03:21:09;;;;;;;;;;;;;;;14.68;100.00;99488.28;5078473;28;906;-57
2023/07/29 03:23:36;;;;;;;;;;;;;;;14.65;100.00;99486.38;5078269;28;869;-57
2023/07/29 03:26:12;;;;;;;;;;;;;;;14.64;100.00;99484.81;5078180;28;1883;-57
2023/07/29 03:28:40;;;;;;;;;;;;;;;14.63;100.00;99483.25;5078437;28;782;-57
2023/07/29 03:31:07;;;;;;;;;;;;;;;14.62;100.00;99493.59;5078905;28;759;-57
2023/07/29 03:33:34;;;;;;;;;;;;;;;14.60;100.00;99501.59;5078713;28;814;-57
2023/07/29 03:36:01;;;;;;;;;;;;;;;14.60;100.00;99498.03;5078370;28;806;-57
2023/07/29 03:38:28;;;;;;;;;;;;;;;14.59;100.00;99502.03;5078440;28;1213;-57
2023/07/29 03:40:54;;;;;;;;;;;;;;;14.60;100.00;99498.03;5078274;28;1287;-57
2023/07/29 03:43:21;;;;;;;;;;;;;;;14.64;100.00;99513.41;5078141;28;1161;-57
2023/07/29 03:45:48;;;;;;;;;;;;;;;14.67;100.00;99512.53;5078114;28;1939;-57
2023/07/29 03:48:15;;;;;;;;;;;;;;;14.71;100.00;99504.09;5078057;28;1145;-57
2023/07/29 03:50:42;;;;;;;;;;;;;;;14.79;100.00;99507.47;5078451;28;795;-57
2023/07/29 03:53:09;;;;;;;;;;;;;;;14.85;100.00;99506.50;5077998;28;838;-57
2023/07/29 03:55:36;;;;;;;;;;;;;;;14.89;100.00;99501.63;5078247;28;1288;-57
2023/07/29 03:58:04;;;;;;;;;;;;;;;14.95;100.00;99501.06;5077953;28;858;-57
2023/07/29 04:00:31;;;;;;;;;;;;;;;15.02;100.00;99503.66;5078054;28;1327;-57
2023/07/29 04:02:56;;;;;;;;;;;;;;;15.09;100.00;99507.03;5078310;28;857;-57
2023/07/29 04:05:23;;;;;;;;;;;;;;;15.14;100.00;99513.28;5077765;28;1906;-57
2023/07/29 04:07:50;;;;;;;;;;;;;;;15.22;100.00;99500.72;5077817;28;858;-57
2023/07/29 04:10:17;;;;;;;;;;;;;;;15.30;100.00;99504.88;5078067;28;787;-57
2023/07/29 04:12:44;;;;;;;;;;;;;;;15.38;100.00;99505.41;5077794;28;795;-57
2023/07/29 04:15:11;;;;;;;;;;;;;;;15.46;100.00;99496.41;5077799;28;870;-57
2023/07/29 04:17:38;;;;;;;;;;;;;;;15.57;100.00;99498.09;5077273;28;821;-57
2023/07/29 04:20:05;;;;;;;;;;;;;;;15.70;100.00;99496.09;5074009;28;873;-57
2023/07/29 04:22:32;;;;;;;;;;;;;;;15.81;100.00;99499.38;5074670;28;829;-57
2023/07/29 04:24:59;;;;;;;;;;;;;;;15.97;100.00;99498.47;5074778;28;1890;-57
2023/07/29 04:27:27;;;;;;;;;;;;;;;16.13;100.00;99501.16;5074422;28;869;-57
2023/07/29 04:29:54;;;;;;;;;;;;;;;16.26;100.00;99508.72;5074427;28;1279;-57
2023/07/29 04:32:21;;;;;;;;;;;;;;;16.48;100.00;99494.84;5074590;28;1189;-57
2023/07/29 04:34:48;;;;;;;;;;;;;;;16.72;100.00;99498.75;5074596;28;845;-58
2023/07/29 04:37:15;;;;;;;;;;;;;;;16.90;100.00;99497.41;5074316;28;1184;-58
2023/07/29 04:39:42;;;;;;;;;;;;;;;17.12;100.00;99502.97;5074279;28;1173;-57
2023/07/29 04:42:08;;;;;;;;;;;;;;;17.28;100.00;99505.59;5074224;28;1226;-57
2023/07/29 04:44:35;;;;;;;;;;;;;;;17.47;100.00;99502.88;5074047;28;1889;-57
2023/07/29 04:47:02;;;;;;;;;;;;;;;17.65;100.00;99507.81;5073810;28;1214;-58
2023/07/29 04:49:29;;;;;;;;;;;;;;;17.91;100.00;99495.19;5074049;28;829;-57
2023/07/29 04:51:56;;;;;;;;;;;;;;;18.40;100.00;99509.63;5074008;28;877;-57
2023/07/29 04:54:23;;;;;;;;;;;;;;;18.79;100.00;99513.59;5056051;28;1192;-58
2023/07/29 04:56:51;;;;;;;;;;;;;;;19.21;100.00;99498.19;5073684;28;815;-57
2023/07/29 04:59:18;;;;;;;;;;;;;;;19.52;100.00;99506.34;5055928;28;1145;-57
2023/07/29 05:01:44;;;;;;;;;;;;;;;19.72;100.00;99509.44;5074025;28;1149;-58
2023/07/29 05:04:11;;;;;;;;;;;;;;;20.06;100.00;99501.03;5073714;28;1969;-58
2023/07/29 05:06:38;;;;;;;;;;;;;;;20.30;100.00;99504.63;5073989;28;802;-58
2023/07/29 05:09:15;;;;;;;;;;;;;;;20.25;100.00;99504.50;5073742;28;874;-57
2023/07/29 05:11:45;;;;;;;;;;;;;;;20.09;100.00;99498.03;5073649;28;885;-57
2023/07/29 05:14:12;;;;;;;;;;;;;;;20.04;100.00;99504.31;5073587;28;845;-57
2023/07/29 05:16:39;;;;;;;;;;;;;;;20.08;100.00;99492.91;5073593;28;799;-57
2023/07/29 05:19:07;;;;;;;;;;;;;;;20.15;100.00;99504.56;5073673;28;866;-57
2023/07/29 05:21:34;;;;;;;;;;;;;;;20.26;100.00;99506.84;5073507;28;1425;-57
2023/07/29 05:24:01;;;;;;;;;;;;;;;20.51;100.00;99510.44;5073315;28;1889;-57
2023/07/29 05:26:29;;;;;;;;;;;;;;;20.84;100.00;99515.22;5073191;28;802;-57
2023/07/29 05:28:56;;;;;;;;;;;;;;;21.22;100.00;99520.03;5073201;28;811;-57
2023/07/29 05:31:23;;;;;;;;;;;;;;;21.51;100.00;99526.97;5072139;28;829;-56
2023/07/29 05:33:50;;;;;;;;;;;;;;;21.75;100.00;99527.63;5073128;28;819;-56
2023/07/29 05:36:17;;;;;;;;;;;;;;;21.82;100.00;99541.28;5073129;28;846;-56
2023/07/29 05:38:45;;;;;;;;;;;;;;;21.87;100.00;99539.03;5071898;28;910;-56
2023/07/29 05:41:12;;;;;;;;;;;;;;;21.91;100.00;99546.06;5073128;28;838;-56
2023/07/29 05:43:40;;;;;;;;;;;;;;;22.03;100.00;99547.75;5072994;28;807;-57
2023/07/29 05:46:06;;;;;;;;;;;;;;;22.18;100.00;99546.97;5072994;28;1952;-56
2023/07/29 05:48:33;;;;;;;;;;;;;;;22.33;100.00;99552.56;5072680;28;1459;-56
2023/07/29 05:51:00;;;;;;;;;;;;;;;22.49;100.00;99557.69;5072861;28;826;-56
2023/07/29 05:53:26;;;;;;;;;;;;;;;22.75;100.00;99557.00;5072745;28;807;-56
2023/07/29 05:55:53;;;;;;;;;;;;;;;23.05;100.00;99563.28;5072852;28;815;-55
2023/07/29 05:58:20;;;;;;;;;;;;;;;23.41;100.00;99563.91;5072688;28;811;-56
2023/07/29 06:00:46;;;;;;;;;;;;;;;24.05;100.00;99564.75;5072953;28;882;-56
2023/07/29 06:03:13;;;;;;;;;;;;;;;24.65;100.00;99568.50;5072550;28;856;-56
2023/07/29 06:05:39;;;;;;;;;;;;;;;25.04;100.00;99556.56;5072488;28;1919;-56
2023/07/29 06:08:08;;;;;;;;;;;;;;;25.23;98.95;99561.81;5072473;28;822;-56
2023/07/29 06:10:35;;;;;;;;;;;;;;;25.25;97.35;99556.41;5072477;28;1171;-56
2023/07/29 06:13:01;;;;;;;;;;;;;;;25.25;96.58;99559.25;5072383;28;865;-54
2023/07/29 06:15:30;;;;;;;;;;;;;;;25.24;93.94;99563.34;5072376;28;897;-56
2023/07/29 06:17:56;;;;;;;;;;;;;;;25.42;92.84;99559.28;5054515;28;1192;-56
2023/07/29 06:20:24;;;;;;;;;;;;;;;25.75;88.08;99550.03;5072233;28;888;-54
2023/07/29 06:22:51;;;;;;;;;;;;;;;26.11;84.71;99555.97;5072332;28;810;-55
2023/07/29 06:25:17;;;;;;;;;;;;;;;26.60;82.59;99555.63;5072372;28;1964;-56
2023/07/29 06:27:44;;;;;;;;;;;;;;;27.04;79.16;99551.09;5072248;28;858;-56
2023/07/29 06:30:10;;;;;;;;;;;;;;;27.52;74.96;99549.00;5072127;28;873;-56
2023/07/29 06:32:37;;;;;;;;;;;;;;;27.75;72.71;99546.78;5072146;28;814;-56
2023/07/29 06:35:04;;;;;;;;;;;;;;;27.44;66.74;99543.13;5072047;28;869;-56
2023/07/29 06:37:31;;;;;;;;;;;;;;;27.33;66.59;99546.03;5072049;28;822;-55
2023/07/29 06:39:57;;;;;;;;;;;;;;;27.86;64.85;99541.03;5072044;28;814;-56
2023/07/29 06:42:24;;;;;;;;;;;;;;;29.16;60.84;99537.53;5071570;28;860;-55
2023/07/29 06:44:50;;;;;;;;;;;;;;;30.41;55.62;99530.63;5071957;28;1898;-55
2023/07/29 06:47:17;;;;;;;;;;;;;;;31.73;47.48;99535.25;5072131;28;1230;-56
2023/07/29 06:49:43;;;;;;;;;;;;;;;32.75;43.08;99533.34;5072045;28;806;-56
2023/07/29 06:52:10;;;;;;;;;;;;;;;33.54;40.79;99542.41;5071918;28;810;-56
2023/07/29 06:54:37;;;;;;;;;;;;;;;34.00;38.98;99535.97;5071898;28;831;-55
2023/07/29 06:57:05;;;;;;;;;;;;;;;34.10;37.78;99536.91;5071948;28;882;-55
2023/07/29 06:59:32;;;;;;;;;;;;;;;34.49;36.58;99542.63;5071972;28;822;-54
2023/07/29 07:01:59;;;;;;;;;;;;;;;34.74;35.01;99520.56;5071779;28;877;-54
2023/07/29 07:04:27;;;;;;;;;;;;;;;34.51;35.05;99514.88;5071821;28;1918;-55
2023/07/29 07:06:54;;;;;;;;;;;;;;;34.27;35.35;99524.88;5071843;28;803;-55
2023/07/29 07:09:21;;;;;;;;;;;;;;;34.73;34.35;99521.13;5071930;28;930;-56
2023/07/29 07:11:48;;;;;;;;;;;;;;;35.28;33.77;99526.06;5071781;28;853;-56
2023/07/29 07:14:15;;;;;;;;;;;;;;;35.56;33.00;99524.91;5071659;28;803;-56
2023/07/29 07:16:41;;;;;;;;;;;;;;;35.61;32.76;99525.28;5071722;28;852;-57
2023/07/29 07:19:08;;;;;;;;;;;;;;;35.62;32.30;99521.81;5071932;28;853;-56
2023/07/29 07:21:36;;;;;;;;;;;;;;;35.38;31.60;99514.72;5071634;28;917;-56
2023/07/29 07:24:03;;;;;;;;;;;;;;;35.34;31.75;99506.50;5071488;28;787;-56
2023/07/29 07:26:30;;;;;;;;;;;;;;;35.47;30.52;99508.34;5053658;28;1290;-56
2023/07/29 07:28:57;;;;;;;;;;;;;;;35.88;29.85;99508.22;5071566;28;834;-57
2023/07/29 07:31:23;;;;;;;;;;;;;;;36.33;29.11;99504.16;5071522;28;841;-55
2023/07/29 07:33:49;;;;;;;;;;;;;;;36.14;28.50;99498.22;5071551;28;936;-55
2023/07/29 07:36:16;;;;;;;;;;;;;;;36.06;28.48;99491.75;5071448;28;850;-56
2023/07/29 07:38:42;;;;;;;;;;;;;;;36.20;28.24;99495.88;5071417;28;853;-57
2023/07/29 07:41:09;;;;;;;;;;;;;;;36.02;28.24;99492.19;5071440;28;855;-56
2023/07/29 07:43:36;;;;;;;;;;;;;;;35.83;27.88;99495.63;5071451;28;890;-56
2023/07/29 07:46:03;;;;;;;;;;;;;;;35.52;28.09;99486.47;5071582;28;1945;-56
2023/07/29 07:48:30;;;;;;;;;;;;;;;35.38;28.30;99486.00;5071305;28;1252;-55
2023/07/29 07:50:56;;;;;;;;;;;;;;;35.71;27.13;99486.72;5071265;28;856;-56
2023/07/29 07:53:25;;;;;;;;;;;;;;;35.96;27.66;99474.44;5072017;28;803;-55
2023/07/29 07:55:51;;;;;;;;;;;;;;;36.23;26.87;99471.66;5075081;28;894;-55
2023/07/29 07:58:18;;;;;;;;;;;;;;;36.58;26.23;99474.56;5075361;28;826;-54
2023/07/29 08:00:45;;;;;;;;;;;;;;;37.07;25.46;99472.03;5075043;28;838;-55
2023/07/29 08:03:10;;;;;;;;;;;;;;;37.02;24.56;99473.78;5074994;28;850;-55
2023/07/29 08:05:37;;;;;;;;;;;;;;;36.55;23.77;99472.84;5074932;28;1909;-55
2023/07/29 08:08:04;;;;;;;;;;;;;;;36.47;24.64;99461.44;5074861;28;866;-55
2023/07/29 08:10:30;;;;;;;;;;;;;;;36.55;23.21;99470.75;5075227;28;879;-54
2023/07/29 08:12:57;;;;;;;;;;;;;;;36.39;23.58;99457.88;5074790;28;861;-56
2023/07/29 08:15:24;;;;;;;;;;;;;;;36.54;22.49;99468.47;5074846;28;811;-55
2023/07/29 08:17:50;;;;;;;;;;;;;;;36.44;22.12;99462.63;5074633;28;787;-55
2023/07/29 08:20:16;;;;;;;;;;;;;;;36.55;21.90;99464.22;5074742;28;862;-56
2023/07/29 08:22:42;;;;;;;;;;;;;;;36.91;21.40;99466.44;5074571;28;904;-57
2023/07/29 08:25:09;;;;;;;;;;;;;;;37.38;21.31;99455.03;5074764;28;1917;-56
2023/07/29 08:27:36;;;;;;;;;;;;;;;37.15;21.32;99447.53;5074657;28;919;-56
2023/07/29 08:30:03;;;;;;;;;;;;;;;36.97;21.41;99437.41;5074554;28;877;-54
2023/07/29 08:32:30;;;;;;;;;;;;;;;36.62;21.07;99439.59;5074443;28;810;-55
2023/07/29 08:34:57;;;;;;;;;;;;;;;36.73;20.94;99431.19;5074680;28;791;-56
2023/07/29 08:37:24;;;;;;;;;;;;;;;36.73;21.47;99434.06;5074743;28;802;-56
2023/07/29 08:39:50;;;;;;;;;;;;;;;36.40;21.84;99439.25;5074406;28;933;-54
2023/07/29 08:42:18;;;;;;;;;;;;;;;36.53;22.48;99418.00;5074475;28;849;-55
2023/07/29 08:44:45;;;;;;;;;;;;;;;36.86;20.79;99430.06;5074394;28;1890;-56
2023/07/29 08:47:13;;;;;;;;;;;;;;;36.51;20.53;99433.00;5074355;28;1277;-56
2023/07/29 08:49:40;;;;;;;;;;;;;;;36.15;20.71;99437.25;5074216;28;815;-56
2023/07/29 08:52:07;;;;;;;;;;;;;;;36.23;20.80;99422.75;5074080;28;893;-57
2023/07/29 08:54:34;;;;;;;;;;;;;;;35.95;20.68;99426.88;5074241;28;857;-56
2023/07/29 08:57:01;;;;;;;;;;;;;;;36.38;20.95;99416.84;5074002;28;822;-56
2023/07/29 08:59:28;;;;;;;;;;;;;;;36.65;19.96;99416.16;5074001;28;830;-57
2023/07/29 09:01:57;;;;;;;;;;;;;;;36.37;21.02;99415.31;5073947;28;842;-56
2023/07/29 09:04:24;;;;;;;;;;;;;;;36.57;21.04;99412.56;5073388;28;1992;-55
2023/07/29 09:06:51;;;;;;;;;;;;;;;35.89;21.08;99412.78;5073778;28;836;-56
2023/07/29 09:09:18;;;;;;;;;;;;;;;35.25;21.74;99418.09;5073740;28;823;-55
2023/07/29 09:11:45;;;;;;;;;;;;;;;35.10;21.91;99412.41;5073691;28;949;-55
2023/07/29 09:14:12;;;;;;;;;;;;;;;35.06;21.97;99407.09;5073649;28;798;-56
2023/07/29 09:48:22;;;;;;;;;;;;;;;34.66;23.37;99393.56;5015479;26;2831;-57
2023/07/29 09:50:48;;;;;;;;;;;;;;;34.62;23.27;99383.81;5033022;28;818;-56
2023/07/29 09:53:16;;;;;;;;;;;;;;;34.40;23.32;99388.28;5033041;28;810;-57
2023/07/29 09:55:47;;;;;;;;;;;;;;;33.95;24.30;99382.13;5033039;28;802;-57
2023/07/29 10:01:17;;;;;;;;;;;;;;;33.70;24.16;99377.03;5038484;28;654;-56
2023/07/29 10:03:44;;;;;;;;;;;;;;;33.77;24.16;99381.22;5052893;28;899;-56
2023/07/29 10:06:11;;;;;;;;;;;;;;;33.98;24.42;99372.38;5052806;28;1977;-56
2023/07/29 10:08:39;;;;;;;;;;;;;;;33.92;24.15;99372.56;5052830;28;834;-56
2023/07/29 10:11:06;;;;;;;;;;;;;;;33.71;24.18;99378.56;5052717;28;798;-57
2023/07/29 10:13:34;;;;;;;;;;;;;;;33.84;24.23;99366.13;5052772;28;872;-56
2023/07/29 10:16:03;;;;;;;;;;;;;;;33.88;24.37;99351.38;5051821;28;813;-56
2023/07/29 10:18:33;;;;;;;;;;;;;;;33.92;23.86;99366.09;5052579;28;925;-57
2023/07/29 10:21:00;;;;;;;;;;;;;;;34.15;23.89;99363.94;5052501;28;822;-56
2023/07/29 10:23:29;;;;;;;;;;;;;;;34.21;23.92;99354.38;5052496;28;815;-57
2023/07/29 10:26:03;;;;;;;;;;;;;;;34.49;23.16;99365.50;5052297;28;1898;-58
2023/07/29 10:28:31;;;;;;;;;;;;;;;34.38;23.29;99362.31;5052563;28;810;-57
2023/07/29 10:30:58;;;;;;;;;;;;;;;34.51;23.16;99359.19;5052355;28;822;-57
2023/07/29 10:33:25;;;;;;;;;;;;;;;35.00;22.71;99348.41;5052092;28;838;-57
2023/07/29 10:35:52;;;;;;;;;;;;;;;35.12;22.48;99347.34;5052255;28;810;-55
2023/07/29 10:38:20;;;;;;;;;;;;;;;35.14;22.56;99353.28;5052191;28;810;-57
2023/07/29 10:40:48;;;;;;;;;;;;;;;35.29;23.26;99345.88;5052097;28;803;-56
2023/07/29 10:43:22;;;;;;;;;;;;;;;34.95;23.32;99344.38;5052347;28;1170;-57
2023/07/29 10:45:48;;;;;;;;;;;;;;;34.77;23.25;99347.19;5051740;28;1894;-58
2023/07/29 10:48:36;;;;;;;;;;;;;;;34.93;23.62;99342.13;5051800;28;1401;-57
2023/07/29 10:51:20;;;;;;;;;;;;;;;35.57;22.75;99344.63;5051987;28;865;-57
2023/07/29 10:53:47;;;;;;;;;;;;;;;35.56;22.81;99343.88;5052079;28;861;-59
2023/07/29 10:56:24;;;;;;;;;;;;;;;35.52;23.00;99340.66;5052054;28;830;-57
2023/07/29 10:58:51;;;;;;;;;;;;;;;35.85;22.74;99322.53;5051871;28;856;-56
2023/07/29 11:01:27;;;;;;;;;;;;;;;35.67;22.66;99333.28;5051862;28;978;-56
2023/07/29 11:04:12;;;;;;;;;;;;;;;35.76;22.79;99332.59;5051801;28;1255;-58
2023/07/29 11:06:58;;;;;;;;;;;;;;;36.12;21.97;99328.34;5051795;28;954;-58
2023/07/29 11:09:43;;;;;;;;;;;;;;;36.32;22.26;99329.28;5051764;28;854;-57
2023/07/29 11:12:28;;;;;;;;;;;;;;;36.40;22.42;99312.66;5051664;28;861;-57
2023/07/29 11:14:55;;;;;;;;;;;;;;;36.58;22.38;99307.63;5051717;28;877;-56
2023/07/29 11:17:21;;;;;;;;;;;;;;;36.83;22.60;99326.84;5051678;28;909;-58
2023/07/29 11:19:49;;;;;;;;;;;;;;;36.83;21.31;99326.84;5033729;28;886;-58
2023/07/29 11:22:16;;;;;;;;;;;;;;;36.49;21.32;99322.69;5051935;28;822;-57
2023/07/29 11:24:42;;;;;;;;;;;;;;;36.22;21.36;99320.59;5051515;28;1952;-58
2023/07/29 11:27:16;;;;;;;;;;;;;;;36.17;21.40;99324.50;5051717;28;803;-57
2023/07/29 11:29:44;;;;;;;;;;;;;;;36.57;21.02;99321.25;5055679;28;845;-58
2023/07/29 11:32:10;;;;;;;;;;;;;;;36.72;21.19;99314.53;5055628;28;799;-58
2023/07/29 11:34:37;;;;;;;;;;;;;;;36.79;21.16;99318.66;5055713;28;818;-57
2023/07/29 11:37:06;;;;;;;;;;;;;;;36.73;21.07;99316.06;5055531;28;807;-57
2023/07/29 11:39:33;;;;;;;;;;;;;;;36.56;21.48;99319.72;5055431;28;826;-57
2023/07/29 11:41:59;;;;;;;;;;;;;;;36.59;21.42;99326.41;5037437;28;2072;-58
2023/07/29 11:44:27;;;;;;;;;;;;;;;37.11;21.41;99317.59;5053872;28;2067;-58
2023/07/29 11:46:53;;;;;;;;;;;;;;;37.42;20.67;99314.16;5055439;28;1362;-57
2023/07/29 11:49:20;;;;;;;;;;;;;;;38.10;19.91;99308.47;5055347;28;814;-58
2023/07/29 11:51:47;;;;;;;;;;;;;;;38.72;19.44;99310.00;5055203;28;939;-58
2023/07/29 11:54:13;;;;;;;;;;;;;;;39.07;18.94;99307.44;5055213;28;857;-58
2023/07/29 11:56:40;;;;;;;;;;;;;;;39.50;18.59;99313.28;5055135;28;858;-58
2023/07/29 11:59:07;;;;;;;;;;;;;;;39.71;18.26;99303.84;5054956;28;942;-57
2023/07/29 12:01:34;;;;;;;;;;;;;;;39.81;18.08;99303.75;5055103;28;831;-57
2023/07/29 12:04:01;;;;;;;;;;;;;;;39.97;17.82;99304.84;5054972;28;822;-58
2023/07/29 12:06:31;;;;;;;;;;;;;;;40.07;17.29;99293.16;5054877;28;1969;-58
2023/07/29 12:08:58;;;;;;;;;;;;;;;39.71;18.67;99312.50;5054952;28;912;-57
2023/07/29 12:11:25;;;;;;;;;;;;;;;39.60;19.01;99302.41;5054897;28;834;-56
2023/07/29 12:13:53;;;;;;;;;;;;;;;39.55;19.03;99299.84;5036768;28;814;-54
2023/07/29 12:16:20;;;;;;;;;;;;;;;39.95;18.85;99292.41;5055056;28;857;-56
2023/07/29 12:18:48;;;;;;;;;;;;;;;39.96;18.81;99288.84;5054722;28;905;-54
2023/07/29 12:21:15;;;;;;;;;;;;;;;39.84;18.99;99295.94;5054655;28;1312;-58
2023/07/29 12:23:41;;;;;;;;;;;;;;;39.59;19.14;99288.56;5054755;28;1171;-56
2023/07/29 12:26:08;;;;;;;;;;;;;;;39.33;19.21;99285.38;5054400;28;1947;-57
2023/07/29 12:28:35;;;;;;;;;;;;;;;39.91;19.21;99287.09;5054836;28;850;-57
2023/07/29 12:31:07;;;;;;;;;;;;;;;40.70;18.87;99284.13;5054469;28;806;-58
2023/07/29 12:33:41;;;;;;;;;;;;;;;41.11;18.59;99280.84;5054540;28;865;-57
2023/07/29 12:36:10;;;;;;;;;;;;;;;41.15;17.78;99286.94;5054356;28;826;-57
2023/07/29 12:38:37;;;;;;;;;;;;;;;41.11;17.84;99281.59;5054193;28;966;-56
2023/07/29 12:41:04;;;;;;;;;;;;;;;41.12;17.59;99279.47;5053926;28;913;-57
2023/07/29 12:43:30;;;;;;;;;;;;;;;40.98;18.23;99288.06;5054116;28;893;-57
2023/07/29 12:45:57;;;;;;;;;;;;;;;41.47;17.55;99285.22;5054273;28;1893;-57
2023/07/29 12:48:25;;;;;;;;;;;;;;;40.95;17.46;99287.19;5053872;28;1214;-56
2023/07/29 12:50:51;;;;;;;;;;;;;;;40.26;18.00;99286.44;5054262;28;1031;-58
2023/07/29 12:53:18;;;;;;;;;;;;;;;40.68;18.15;99272.44;5054265;28;857;-57
2023/07/29 12:55:46;;;;;;;;;;;;;;;41.06;18.08;99285.66;5053964;28;874;-57
2023/07/29 12:58:13;;;;;;;;;;;;;;;41.07;17.68;99283.50;5054047;28;815;-57
2023/07/29 13:00:40;;;;;;;;;;;;;;;40.27;18.07;99278.53;5053912;28;823;-57
2023/07/29 13:03:08;;;;;;;;;;;;;;;40.36;18.92;99287.13;5053918;28;838;-58
2023/07/29 13:05:35;;;;;;;;;;;;;;;40.28;19.06;99283.69;5053818;28;1977;-58
2023/07/29 13:08:01;;;;;;;;;;;;;;;40.72;18.60;99287.94;5052481;28;1260;-58
2023/07/29 13:10:28;;;;;;;;;;;;;;;40.12;18.75;99291.31;5053753;28;873;-57
2023/07/29 13:12:55;;;;;;;;;;;;;;;38.12;19.96;99287.66;5053634;28;834;-58
2023/07/29 13:15:22;;;;;;;;;;;;;;;36.18;22.40;99294.38;5053614;28;837;-58
2023/07/29 13:17:49;;;;;;;;;;;;;;;36.54;22.86;99293.66;5053593;28;838;-57
2023/07/29 13:20:16;;;;;;;;;;;;;;;37.59;22.03;99285.22;5053487;28;826;-58
2023/07/29 13:22:42;;;;;;;;;;;;;;;38.44;21.30;99282.72;5053461;28;845;-58
2023/07/29 13:25:09;;;;;;;;;;;;;;;38.85;20.60;99271.19;5053437;28;1902;-57
2023/07/29 13:27:36;;;;;;;;;;;;;;;38.91;20.75;99275.25;5053645;28;842;-56
2023/07/29 13:30:03;;;;;;;;;;;;;;;38.87;20.37;99274.22;5053433;28;873;-57
2023/07/29 13:32:30;;;;;;;;;;;;;;;39.01;20.49;99278.13;5053466;28;857;-57
2023/07/29 13:34:57;;;;;;;;;;;;;;;38.78;20.90;99276.53;5053320;28;849;-58
2023/07/29 13:37:23;;;;;;;;;;;;;;;39.02;20.50;99285.41;5053129;28;878;-58